createdAt,value
2023-03-11T00:00:33.687Z,73.82
2023-03-11T00:03:02.239Z,73.81
2023-03-11T00:05:31.797Z,74.14
2023-03-11T00:07:58.361Z,75.17
2023-03-11T00:10:30.893Z,75.49
2023-03-11T00:12:58.990Z,75.94
2023-03-11T00:15:26.672Z,76.37
2023-03-11T00:17:53.093Z,77.24
2023-03-11T00:20:31.887Z,77.73
2023-03-11T00:22:58.994Z,78.11
2023-03-11T00:25:28.741Z,77.62
2023-03-11T00:27:56.104Z,78.07
2023-03-11T00:30:24.075Z,79.28
2023-03-11T00:32:53.038Z,79.13
2023-03-11T00:35:23.328Z,78.56
2023-03-11T00:37:54.331Z,78.41
2023-03-11T00:40:22.031Z,78.73
2023-03-11T00:42:48.449Z,78.71
2023-03-11T00:45:19.216Z,78.74
2023-03-11T00:47:46.095Z,79.04
2023-03-11T00:50:24.970Z,79.31
2023-03-11T00:52:52.784Z,79.10
2023-03-11T00:55:22.743Z,79.54
2023-03-11T00:57:53.244Z,78.72
2023-03-11T01:00:21.276Z,79.18
2023-03-11T01:02:47.676Z,78.73
2023-03-11T01:05:15.197Z,79.07
2023-03-11T01:07:41.914Z,79.37
2023-03-11T01:10:10.103Z,80.39
2023-03-11T01:12:36.674Z,79.75
2023-03-11T01:15:04.377Z,80.82
2023-03-11T01:17:30.790Z,80.88
2023-03-11T01:19:57.231Z,81.42
2023-03-11T01:22:23.749Z,81.27
2023-03-11T01:24:50.102Z,81.40
2023-03-11T01:27:16.724Z,80.84
2023-03-11T01:29:43.127Z,80.62
2023-03-11T01:32:11.234Z,81.61
2023-03-11T01:34:37.730Z,80.97
2023-03-11T01:37:04.219Z,80.30
2023-03-11T01:39:30.794Z,80.00
2023-03-11T01:41:57.294Z,80.32
2023-03-11T01:44:23.748Z,80.34
2023-03-11T01:46:53.035Z,80.59
2023-03-11T01:49:21.799Z,80.41
2023-03-11T01:51:51.986Z,81.16
2023-03-11T01:54:28.384Z,80.93
2023-03-11T01:56:55.842Z,81.63
2023-03-11T01:59:36.266Z,81.04
2023-03-11T02:02:11.330Z,80.86
2023-03-11T02:04:40.487Z,80.65
2023-03-11T02:07:08.610Z,80.32
2023-03-11T02:09:35.082Z,80.36
2023-03-11T02:12:02.688Z,79.95
2023-03-11T02:14:30.100Z,79.67
2023-03-11T02:16:57.975Z,79.98
2023-03-11T02:19:31.415Z,79.78
2023-03-11T02:21:58.261Z,80.06
2023-03-11T02:24:46.460Z,79.64
2023-03-11T02:27:16.185Z,80.14
2023-03-11T02:29:44.741Z,80.74
2023-03-11T02:32:11.444Z,80.28
2023-03-11T02:34:39.508Z,80.76
2023-03-11T02:37:15.726Z,80.29
2023-03-11T02:39:49.294Z,80.66
2023-03-11T02:42:22.581Z,80.71
2023-03-11T02:44:58.190Z,81.07
2023-03-11T02:47:25.751Z,81.68
2023-03-11T02:49:54.014Z,82.47
2023-03-11T02:52:20.971Z,82.51
2023-03-11T02:54:47.328Z,83.15
2023-03-11T02:57:13.756Z,83.25
2023-03-11T02:59:40.159Z,83.89
2023-03-11T03:02:06.599Z,83.57
2023-03-11T03:04:33.054Z,82.97
2023-03-11T03:06:59.582Z,82.66
2023-03-11T03:09:26.198Z,83.88
2023-03-11T03:11:52.526Z,83.12
2023-03-11T03:14:18.976Z,83.80
2023-03-11T03:16:45.547Z,83.51
2023-03-11T03:19:11.971Z,83.58
2023-03-11T03:21:38.321Z,83.86
2023-03-11T03:24:04.816Z,84.42
2023-03-11T03:26:31.180Z,84.40
2023-03-11T03:28:57.535Z,84.68
2023-03-11T03:31:24.175Z,85.18
2023-03-11T03:33:50.635Z,85.35
2023-03-11T03:36:17.057Z,86.00
2023-03-11T03:38:43.547Z,85.77
2023-03-11T03:41:10.090Z,85.69
2023-03-11T03:43:36.455Z,86.32
2023-03-11T03:46:05.205Z,86.34
2023-03-11T03:48:32.025Z,85.64
2023-03-11T03:51:04.424Z,86.07
2023-03-11T03:53:31.339Z,85.18
2023-03-11T03:55:57.809Z,85.77
2023-03-11T03:58:24.186Z,86.46
2023-03-11T04:00:56.140Z,87.04
2023-03-11T04:03:22.840Z,86.38
2023-03-11T04:05:49.208Z,86.67
2023-03-11T04:08:15.628Z,86.94
2023-03-11T04:10:41.964Z,87.23
2023-03-11T04:13:08.441Z,87.43
2023-03-11T04:15:34.835Z,87.65
2023-03-11T04:18:06.021Z,87.36
2023-03-11T04:20:32.374Z,87.25
2023-03-11T04:22:58.787Z,87.43
2023-03-11T04:25:25.264Z,87.39
2023-03-11T04:27:52.311Z,87.04
2023-03-11T04:30:18.809Z,87.62
2023-03-11T04:32:45.274Z,88.30
2023-03-11T04:35:11.707Z,87.99
2023-03-11T04:37:38.060Z,88.49
2023-03-11T04:40:06.222Z,88.07
2023-03-11T04:42:32.683Z,89.04
2023-03-11T04:44:59.048Z,88.52
2023-03-11T04:47:25.493Z,88.66
2023-03-11T04:49:51.908Z,88.94
2023-03-11T04:52:18.292Z,88.99
2023-03-11T04:54:44.645Z,88.31
2023-03-11T04:57:10.981Z,88.48
2023-03-11T04:59:37.430Z,88.85
2023-03-11T05:02:03.909Z,88.21
2023-03-11T05:04:30.677Z,87.62
2023-03-11T05:06:57.192Z,87.70
2023-03-11T05:09:25.679Z,87.91
2023-03-11T05:11:52.147Z,88.02
2023-03-11T05:14:18.641Z,86.37
2023-03-11T05:16:45.034Z,85.60
2023-03-11T05:19:46.720Z,86.02
2023-03-11T05:22:13.384Z,85.83
2023-03-11T05:24:39.817Z,84.95
2023-03-11T05:27:06.234Z,84.40
2023-03-11T05:29:32.723Z,84.85
2023-03-11T05:31:59.208Z,84.44
2023-03-11T05:34:25.667Z,84.54
2023-03-11T05:36:52.051Z,84.74
2023-03-11T05:39:18.539Z,85.47
2023-03-11T05:41:44.989Z,84.93
2023-03-11T05:44:11.408Z,86.38
2023-03-11T05:46:37.952Z,85.82
2023-03-11T05:49:04.486Z,85.72
2023-03-11T05:51:30.926Z,85.45
2023-03-11T05:53:58.606Z,85.02
2023-03-11T05:56:25.064Z,87.08
2023-03-11T05:58:51.541Z,86.13
2023-03-11T06:01:20.611Z,86.42
2023-03-11T06:03:47.063Z,85.90
2023-03-11T06:06:14.133Z,86.45
2023-03-11T06:08:45.844Z,86.56
2023-03-11T06:11:12.237Z,86.79
2023-03-11T06:13:38.806Z,86.79
2023-03-11T06:16:05.793Z,86.37
2023-03-11T06:18:32.189Z,86.26
2023-03-11T06:20:59.367Z,86.68
2023-03-11T06:23:26.674Z,86.17
2023-03-11T06:26:05.175Z,85.72
2023-03-11T06:28:32.193Z,86.19
2023-03-11T06:31:08.290Z,86.14
2023-03-11T06:33:34.773Z,85.23
2023-03-11T06:36:03.703Z,85.21
2023-03-11T06:38:30.321Z,85.95
2023-03-11T06:41:05.060Z,85.75
2023-03-11T06:43:33.063Z,85.99
2023-03-11T06:46:00.022Z,85.97
2023-03-11T06:48:26.537Z,86.08
2023-03-11T06:50:57.631Z,85.60
2023-03-11T06:53:24.719Z,86.41
2023-03-11T06:56:01.820Z,85.96
2023-03-11T06:58:29.176Z,85.36
2023-03-11T07:00:59.822Z,85.92
2023-03-11T07:03:26.272Z,86.49
2023-03-11T07:05:52.661Z,86.17
2023-03-11T07:08:19.166Z,85.13
2023-03-11T07:10:45.689Z,84.90
2023-03-11T07:13:12.563Z,85.18
2023-03-11T07:15:38.956Z,84.93
2023-03-11T07:18:05.500Z,84.36
2023-03-11T07:20:32.013Z,84.09
2023-03-11T07:22:58.414Z,84.43
2023-03-11T07:25:24.938Z,83.83
2023-03-11T07:27:51.364Z,82.96
2023-03-11T07:30:18.296Z,83.10
2023-03-11T07:32:44.707Z,83.00
2023-03-11T07:35:11.265Z,83.37
2023-03-11T07:37:37.661Z,83.89
2023-03-11T07:40:04.358Z,81.93
2023-03-11T07:42:30.706Z,80.55
2023-03-11T07:44:57.120Z,80.36
2023-03-11T07:47:24.656Z,80.95
2023-03-11T07:49:50.988Z,81.36
2023-03-11T07:52:17.520Z,80.61
2023-03-11T07:54:45.147Z,81.35
2023-03-11T07:57:16.943Z,80.95
2023-03-11T07:59:43.503Z,79.65
2023-03-11T08:02:10.678Z,79.35
2023-03-11T08:04:37.060Z,78.45
2023-03-11T08:07:03.949Z,78.27
2023-03-11T08:09:30.376Z,76.75
2023-03-11T08:11:57.016Z,75.72
2023-03-11T08:14:23.349Z,76.20
2023-03-11T08:16:49.732Z,75.69
2023-03-11T08:19:16.114Z,76.00
2023-03-11T08:21:42.549Z,75.97
2023-03-11T08:24:11.747Z,74.93
2023-03-11T08:26:38.699Z,73.99
2023-03-11T08:29:05.126Z,74.28
2023-03-11T08:31:33.707Z,74.16
2023-03-11T08:34:03.226Z,73.29
2023-03-11T08:36:30.158Z,72.69
2023-03-11T08:38:56.730Z,73.51
2023-03-11T08:41:23.764Z,73.89
2023-03-11T08:43:52.129Z,74.31
2023-03-11T08:46:29.294Z,72.51
2023-03-11T08:49:01.072Z,72.33
2023-03-11T08:51:30.371Z,66.99
2023-03-11T08:53:57.210Z,68.00
2023-03-11T08:56:23.860Z,66.59
2023-03-11T08:58:50.859Z,67.04
2023-03-11T09:01:17.914Z,68.38
2023-03-11T09:03:44.364Z,66.59
2023-03-11T09:06:15.449Z,65.72
2023-03-11T09:08:43.368Z,66.05
2023-03-11T09:11:10.031Z,66.86
2023-03-11T09:13:36.430Z,65.20
2023-03-11T09:16:05.798Z,59.79
2023-03-11T09:18:32.298Z,60.76
2023-03-11T09:21:00.527Z,59.82
2023-03-11T09:23:26.947Z,59.48
2023-03-11T09:25:53.422Z,58.95
2023-03-11T09:28:19.835Z,58.56
2023-03-11T09:30:46.239Z,60.70
2023-03-11T09:33:12.605Z,62.21
2023-03-11T09:35:39.691Z,57.86
2023-03-11T09:38:06.162Z,57.79
2023-03-11T09:40:56.584Z,57.82
2023-03-11T09:43:42.785Z,60.00
2023-03-11T09:46:24.294Z,60.36
2023-03-11T09:49:00.518Z,61.05
2023-03-11T09:51:36.066Z,62.35
2023-03-11T09:54:10.976Z,59.70
2023-03-11T09:56:38.527Z,58.85
2023-03-11T09:59:09.320Z,59.05
2023-03-11T10:01:43.176Z,59.25
2023-03-11T10:04:18.188Z,58.17
2023-03-11T10:06:46.976Z,57.35
2023-03-11T10:09:22.576Z,56.29
2023-03-11T10:12:13.984Z,58.25
2023-03-11T10:15:05.905Z,58.13
2023-03-11T10:17:40.144Z,57.23
2023-03-11T10:20:19.875Z,59.70
2023-03-11T10:23:25.623Z,58.17
2023-03-11T10:25:58.397Z,55.62
2023-03-11T10:28:33.203Z,55.86
2023-03-11T10:31:20.241Z,54.83
2023-03-11T10:33:52.430Z,55.91
2023-03-11T10:36:35.312Z,55.01
2023-03-11T10:39:03.327Z,52.18
2023-03-11T10:41:47.295Z,53.01
2023-03-11T10:44:23.894Z,54.08
2023-03-11T10:46:50.263Z,53.21
2023-03-11T10:49:18.356Z,53.82
2023-03-11T10:51:52.988Z,52.48
2023-03-11T10:54:38.410Z,54.60
2023-03-11T10:57:21.535Z,52.40
2023-03-11T10:59:50.728Z,51.49
2023-03-11T11:02:37.531Z,51.16
2023-03-11T11:05:20.008Z,53.22
2023-03-11T11:07:53.167Z,53.82
2023-03-11T11:10:26.766Z,53.10
2023-03-11T11:12:56.523Z,54.04
2023-03-11T11:15:32.755Z,54.28
2023-03-11T11:18:02.355Z,53.21
2023-03-11T11:20:30.913Z,52.71
2023-03-11T11:23:03.488Z,53.05
2023-03-11T11:25:34.930Z,51.85
2023-03-11T11:28:22.912Z,52.64
2023-03-11T11:30:55.199Z,51.68
2023-03-11T11:33:30.936Z,50.78
2023-03-11T11:36:01.400Z,52.90
2023-03-11T11:38:29.557Z,50.65
2023-03-11T11:40:59.678Z,51.96
2023-03-11T11:43:41.196Z,51.77
2023-03-11T11:46:18.940Z,51.24
2023-03-11T11:48:48.425Z,51.85
2023-03-11T11:51:28.601Z,51.15
2023-03-11T11:54:23.918Z,48.53
2023-03-11T11:56:50.483Z,51.64
2023-03-11T11:59:19.752Z,52.12
2023-03-11T12:01:58.066Z,50.71
2023-03-11T12:04:41.144Z,50.67
2023-03-11T12:07:24.978Z,49.05
2023-03-11T12:10:22.863Z,49.00
2023-03-11T12:13:11.940Z,49.82
2023-03-11T12:15:44.352Z,49.71
2023-03-11T12:18:24.444Z,50.11
2023-03-11T12:20:56.112Z,50.04
2023-03-11T12:23:35.728Z,49.79
2023-03-11T12:26:10.068Z,50.27
2023-03-11T12:28:42.841Z,48.70
2023-03-11T12:31:11.773Z,50.05
2023-03-11T12:33:45.718Z,49.13
2023-03-11T12:36:29.197Z,49.60
2023-03-11T12:38:56.029Z,47.71
2023-03-11T12:41:41.906Z,51.31
2023-03-11T12:44:17.558Z,51.25
2023-03-11T12:47:03.304Z,50.52
2023-03-11T12:49:33.856Z,49.95
2023-03-11T12:52:18.878Z,51.31
2023-03-11T12:54:47.677Z,50.37
2023-03-11T12:57:17.019Z,50.92
2023-03-11T13:00:22.925Z,50.07
2023-03-11T13:03:20.758Z,52.04
2023-03-11T13:06:21.835Z,50.28
2023-03-11T13:08:54.724Z,49.25
2023-03-11T13:11:33.345Z,50.53
2023-03-11T13:14:30.643Z,49.99
2023-03-11T13:17:18.136Z,50.08
2023-03-11T13:19:49.982Z,49.52
2023-03-11T13:22:42.731Z,51.62
2023-03-11T13:25:27.326Z,51.64
2023-03-11T13:28:03.998Z,51.09
2023-03-11T13:30:38.896Z,53.27
2023-03-11T13:33:36.656Z,52.26
2023-03-11T13:36:18.908Z,51.79
2023-03-11T13:39:13.842Z,51.93
2023-03-11T13:41:44.590Z,50.75
2023-03-11T13:44:19.662Z,50.45
2023-03-11T13:46:50.468Z,49.13
2023-03-11T13:49:41.455Z,50.28
2023-03-11T13:52:46.824Z,51.48
2023-03-11T13:55:28.694Z,50.87
2023-03-11T13:57:56.859Z,51.41
2023-03-11T14:00:30.797Z,51.93
2023-03-11T14:03:03.549Z,49.47
2023-03-11T14:05:35.975Z,49.73
2023-03-11T14:08:18.871Z,48.21
2023-03-11T14:11:02.979Z,49.18
2023-03-11T14:13:38.284Z,48.20
2023-03-11T14:16:14.592Z,50.10
2023-03-11T14:18:43.385Z,50.69
2023-03-11T14:21:14.593Z,50.94
2023-03-11T14:23:47.286Z,49.81
2023-03-11T14:26:21.046Z,50.55
2023-03-11T14:28:54.096Z,49.83
2023-03-11T14:31:34.196Z,48.61
2023-03-11T14:34:06.708Z,48.35
2023-03-11T14:36:52.311Z,48.93
2023-03-11T14:39:36.319Z,47.30
2023-03-11T14:42:26.085Z,49.56
2023-03-11T14:45:11.935Z,49.78
2023-03-11T14:47:41.647Z,49.14
2023-03-11T14:50:16.559Z,48.80
2023-03-11T14:52:48.597Z,49.30
2023-03-11T14:55:27.677Z,51.63
2023-03-11T14:58:00.345Z,48.02
2023-03-11T15:00:41.698Z,48.51
2023-03-11T15:03:23.162Z,49.38
2023-03-11T15:05:57.932Z,47.10
2023-03-11T15:08:28.341Z,48.49
2023-03-11T15:11:05.778Z,48.78
2023-03-11T15:13:33.046Z,48.64
2023-03-11T15:16:02.272Z,49.50
2023-03-11T15:18:32.338Z,49.29
2023-03-11T15:21:06.124Z,49.87
2023-03-11T15:23:34.869Z,48.13
2023-03-11T15:26:01.747Z,48.91
2023-03-11T15:28:30.890Z,48.31
2023-03-11T15:31:21.981Z,48.95
2023-03-11T15:33:51.480Z,50.29
2023-03-11T15:36:50.210Z,48.69
2023-03-11T15:39:26.056Z,48.36
2023-03-11T15:42:01.870Z,49.62
2023-03-11T15:44:31.984Z,50.10
2023-03-11T15:47:01.278Z,49.87
2023-03-11T15:49:29.559Z,49.95
2023-03-11T15:52:00.021Z,49.84
2023-03-11T15:54:27.094Z,50.39
2023-03-11T15:56:55.137Z,50.80
2023-03-11T15:59:22.204Z,50.30
2023-03-11T16:01:48.563Z,51.39
2023-03-11T16:04:17.340Z,50.06
2023-03-11T16:06:47.965Z,49.52
2023-03-11T16:09:16.817Z,49.11
2023-03-11T16:11:44.331Z,49.35
2023-03-11T16:14:17.310Z,47.96
2023-03-11T16:16:44.802Z,49.59
2023-03-11T16:19:12.115Z,50.16
2023-03-11T16:21:42.944Z,50.42
2023-03-11T16:24:16.672Z,49.43
2023-03-11T16:26:43.071Z,49.96
2023-03-11T16:29:19.042Z,49.76
2023-03-11T16:31:46.743Z,49.16
2023-03-11T16:34:13.237Z,49.59
2023-03-11T16:36:39.678Z,49.94
2023-03-11T16:39:06.321Z,49.47
2023-03-11T16:41:44.358Z,49.86
2023-03-11T16:44:11.406Z,50.13
2023-03-11T16:46:37.963Z,50.27
2023-03-11T16:49:05.156Z,50.66
2023-03-11T16:51:31.939Z,51.37
2023-03-11T16:53:58.343Z,50.46
2023-03-11T16:56:24.947Z,51.17
2023-03-11T16:58:51.501Z,52.04
2023-03-11T17:01:19.113Z,52.58
2023-03-11T17:03:48.543Z,52.66
2023-03-11T17:06:16.237Z,54.98
2023-03-11T17:08:46.067Z,55.42
2023-03-11T17:11:24.271Z,56.05
2023-03-11T17:13:50.936Z,57.68
2023-03-11T17:16:17.430Z,58.62
2023-03-11T17:18:43.862Z,61.00
2023-03-11T17:21:13.089Z,65.49
2023-03-11T17:23:39.526Z,66.50
2023-03-11T17:26:11.506Z,67.38
2023-03-11T17:28:39.920Z,69.03
2023-03-11T17:31:11.648Z,67.96
2023-03-11T17:33:38.070Z,70.17
2023-03-11T17:36:06.525Z,67.06
2023-03-11T17:38:33.672Z,68.49
2023-03-11T17:41:00.182Z,66.92
2023-03-11T17:43:26.579Z,68.25
2023-03-11T17:45:53.755Z,69.20
2023-03-11T17:48:21.199Z,68.02
2023-03-11T17:50:47.607Z,66.87
2023-03-11T17:53:14.001Z,68.96
2023-03-11T17:55:40.618Z,71.32
2023-03-11T17:58:07.521Z,71.67
2023-03-11T18:00:34.040Z,72.10
2023-03-11T18:03:00.446Z,71.97
2023-03-11T18:05:26.811Z,73.99
2023-03-11T18:07:53.189Z,74.04
2023-03-11T18:10:19.699Z,74.75
2023-03-11T18:12:46.757Z,74.71
2023-03-11T18:15:19.313Z,75.14
2023-03-11T18:17:47.001Z,74.69
2023-03-11T18:20:14.709Z,73.98
2023-03-11T18:22:46.214Z,73.81
2023-03-11T18:25:13.797Z,73.71
2023-03-11T18:27:40.264Z,73.75
2023-03-11T18:30:08.114Z,75.04
2023-03-11T18:32:34.639Z,75.11
2023-03-11T18:35:01.213Z,74.58
2023-03-11T18:37:27.637Z,75.18
2023-03-11T18:39:54.106Z,75.24
2023-03-11T18:42:20.510Z,73.80
2023-03-11T18:44:46.983Z,73.09
2023-03-11T18:47:13.395Z,72.88
2023-03-11T18:49:40.419Z,73.74
2023-03-11T18:52:06.862Z,72.88
2023-03-11T18:54:33.295Z,73.04
2023-03-11T18:56:59.731Z,73.46
2023-03-11T18:59:27.545Z,73.87
2023-03-11T19:01:54.130Z,74.57
2023-03-11T19:04:20.599Z,73.83
2023-03-11T19:06:47.430Z,73.11
2023-03-11T19:09:14.107Z,74.56
2023-03-11T19:11:40.452Z,75.61
2023-03-11T19:14:06.918Z,77.16
2023-03-11T19:16:33.320Z,77.41
2023-03-11T19:19:00.327Z,79.22
2023-03-11T19:21:26.997Z,78.88
2023-03-11T19:23:55.283Z,79.22
2023-03-11T19:26:33.757Z,81.16
2023-03-11T19:29:08.810Z,82.07
2023-03-11T19:31:35.367Z,82.27
2023-03-11T19:34:01.840Z,83.58
2023-03-11T19:36:28.316Z,84.21
2023-03-11T19:38:54.696Z,83.59
2023-03-11T19:41:22.996Z,83.03
2023-03-11T19:43:49.503Z,84.02
2023-03-11T19:46:18.898Z,82.59
2023-03-11T19:48:45.326Z,82.99
2023-03-11T19:51:14.428Z,82.35
2023-03-11T19:53:41.594Z,82.83
2023-03-11T19:56:09.144Z,82.57
2023-03-11T19:58:36.047Z,83.57
2023-03-11T20:01:02.616Z,83.56
2023-03-11T20:03:29.772Z,81.47
2023-03-11T20:05:57.921Z,82.66
2023-03-11T20:08:25.672Z,83.46
2023-03-11T20:10:53.471Z,83.23
2023-03-11T20:13:21.550Z,83.04
2023-03-11T20:15:48.127Z,83.99
2023-03-11T20:18:14.559Z,83.65
2023-03-11T20:20:43.254Z,84.05
2023-03-11T20:23:10.382Z,83.28
2023-03-11T20:25:41.326Z,83.77
2023-03-11T20:28:08.081Z,83.80
2023-03-11T20:30:36.751Z,83.87
2023-03-11T20:33:03.203Z,83.41
2023-03-11T20:35:29.673Z,84.76
2023-03-11T20:37:56.144Z,85.59
2023-03-11T20:40:22.627Z,85.73
2023-03-11T20:42:49.095Z,86.32
2023-03-11T20:45:21.504Z,86.18
2023-03-11T20:47:49.192Z,86.10
2023-03-11T20:50:16.306Z,84.62
2023-03-11T20:52:42.806Z,85.86
2023-03-11T20:55:10.250Z,85.63
2023-03-11T20:57:38.077Z,85.30
2023-03-11T21:00:11.410Z,85.56
2023-03-11T21:02:40.184Z,85.30
2023-03-11T21:05:08.378Z,84.83
2023-03-11T21:07:35.329Z,85.66
2023-03-11T21:10:03.779Z,85.02
2023-03-11T21:12:31.415Z,85.77
2023-03-11T21:14:58.052Z,84.94
2023-03-11T21:17:24.793Z,85.48
2023-03-11T21:19:54.167Z,85.15
2023-03-11T21:22:20.764Z,85.80
2023-03-11T21:24:54.436Z,85.33
2023-03-11T21:27:27.744Z,85.95
2023-03-11T21:29:58.368Z,87.39
2023-03-11T21:32:27.223Z,86.95
2023-03-11T21:34:59.022Z,87.83
2023-03-11T21:37:26.743Z,86.77
2023-03-11T21:39:53.735Z,86.48
2023-03-11T21:42:20.873Z,87.19
2023-03-11T21:44:47.433Z,88.14
2023-03-11T21:47:14.001Z,88.20
2023-03-11T21:49:40.485Z,87.63
2023-03-11T21:52:07.028Z,86.97
2023-03-11T21:54:33.470Z,87.50
2023-03-11T21:56:59.987Z,87.28
2023-03-11T21:59:26.676Z,88.41
2023-03-11T22:01:53.383Z,88.19
2023-03-11T22:04:20.103Z,87.97
2023-03-11T22:06:46.573Z,88.52
2023-03-11T22:09:13.131Z,88.14
2023-03-11T22:11:39.672Z,87.28
2023-03-11T22:14:06.200Z,86.82
2023-03-11T22:16:32.888Z,88.55
2023-03-11T22:18:59.341Z,88.55
2023-03-11T22:21:25.818Z,88.03
2023-03-11T22:23:52.334Z,86.20
2023-03-11T22:26:18.755Z,87.63
2023-03-11T22:28:45.176Z,87.17
2023-03-11T22:31:13.901Z,87.87
2023-03-11T22:33:40.500Z,89.23
2023-03-11T22:36:09.154Z,88.28
2023-03-11T22:38:36.847Z,87.37
2023-03-11T22:41:07.661Z,88.37
2023-03-11T22:43:34.968Z,88.81
2023-03-11T22:46:02.645Z,88.80
2023-03-11T22:48:29.179Z,89.60
2023-03-11T22:50:58.779Z,89.93
2023-03-11T22:53:25.200Z,90.02
2023-03-11T22:55:52.766Z,90.13
2023-03-11T22:58:19.679Z,89.89
2023-03-11T23:00:46.649Z,89.74
2023-03-11T23:03:13.540Z,89.99
2023-03-11T23:05:43.431Z,90.34
2023-03-11T23:08:12.076Z,90.06
2023-03-11T23:10:45.698Z,90.86
2023-03-11T23:13:12.882Z,91.10
2023-03-11T23:15:44.285Z,90.83
2023-03-11T23:18:11.684Z,90.48
2023-03-11T23:20:39.987Z,90.54
2023-03-11T23:23:07.295Z,90.86
2023-03-11T23:25:34.864Z,91.21
2023-03-11T23:28:02.933Z,91.15
2023-03-11T23:30:29.463Z,91.35
2023-03-11T23:32:57.179Z,91.54
2023-03-11T23:35:23.706Z,91.73
2023-03-11T23:37:50.923Z,91.23
2023-03-11T23:40:17.547Z,91.69
2023-03-11T23:42:43.982Z,91.85
2023-03-11T23:45:10.917Z,91.91
2023-03-11T23:47:37.346Z,92.64
2023-03-11T23:50:04.049Z,92.72
2023-03-11T23:52:30.445Z,92.28
2023-03-11T23:54:56.944Z,92.13
2023-03-11T23:57:23.402Z,91.38
2023-03-11T23:59:49.871Z,92.09
